Time;durP1;ratioP1;P1;durP2;ratioP2;P2;SDS_P1;SDS_P2;PMS_P1;PMS_P2;Temp;Humidity;BMP_temperature;BMP_pressure;BME280_temperature;BME280_humidity;BME280_pressure;Samples;Min_cycle;Max_cycle;Signal;HPM_P1;HPM_P2
2023/06/27 00:00:53;;;;;;;9.98;3.15;;;17.50;1.00;;;;;;5050186;28;20101;-72
2023/06/27 00:03:18;;;;;;;17.13;3.67;;;17.50;1.00;;;;;;5049468;28;20508;-72
2023/06/27 00:05:44;;;;;;;10.13;3.05;;;17.50;1.00;;;;;;5051769;28;20032;-72
2023/06/27 00:08:10;;;;;;;6.97;2.50;;;17.50;1.00;;;;;;5049770;28;20068;-72
2023/06/27 00:10:35;;;;;;;9.65;3.17;;;17.50;1.00;;;;;;5050546;28;20036;-72
2023/06/27 00:13:01;;;;;;;8.02;2.80;;;17.40;1.00;;;;;;5050966;28;20493;-72
2023/06/27 00:15:29;;;;;;;7.22;2.53;;;17.40;1.00;;;;;;5049675;28;20032;-72
2023/06/27 00:17:55;;;;;;;9.88;3.00;;;17.50;1.00;;;;;;5051114;28;20037;-72
2023/06/27 00:20:21;;;;;;;8.00;2.83;;;17.50;1.00;;;;;;5050290;28;20462;-72
2023/06/27 00:22:47;;;;;;;7.43;2.70;;;17.50;1.00;;;;;;5051056;28;20127;-72
2023/06/27 00:25:13;;;;;;;9.98;3.10;;;17.40;1.00;;;;;;5051169;28;20029;-72
2023/06/27 00:27:39;;;;;;;8.77;2.67;;;17.50;1.00;;;;;;5048694;28;20082;-72
2023/06/27 00:30:05;;;;;;;8.88;2.80;;;17.50;1.00;;;;;;5050896;28;20131;-72
2023/06/27 00:32:31;;;;;;;6.75;2.40;;;17.40;1.00;;;;;;5050473;28;20104;-73
2023/06/27 00:34:57;;;;;;;7.50;2.85;;;17.40;1.00;;;;;;5050491;28;20096;-72
2023/06/27 00:37:23;;;;;;;9.68;2.78;;;17.40;1.00;;;;;;5050091;28;20033;-72
2023/06/27 00:39:48;;;;;;;4.82;2.63;;;17.40;1.00;;;;;;5050221;28;20079;-71
2023/06/27 00:42:14;;;;;;;7.07;2.80;;;17.40;1.00;;;;;;5050415;28;20078;-72
2023/06/27 00:44:40;;;;;;;6.05;2.80;;;17.40;1.00;;;;;;5050039;28;20055;-72
2023/06/27 00:47:06;;;;;;;5.40;2.40;;;17.40;1.00;;;;;;5050858;28;20036;-72
2023/06/27 00:49:32;;;;;;;7.10;3.05;;;17.40;1.00;;;;;;5049821;28;20159;-72
2023/06/27 00:51:59;;;;;;;11.25;3.20;;;17.40;1.00;;;;;;5050495;28;20056;-72
2023/06/27 00:54:25;;;;;;;8.25;2.88;;;17.40;1.00;;;;;;5049936;28;20028;-72
2023/06/27 00:56:55;;;;;;;6.35;2.75;;;17.40;1.00;;;;;;5050177;28;20104;-72
2023/06/27 00:59:22;;;;;;;10.85;3.03;;;17.30;1.00;;;;;;5049500;28;20021;-72
2023/06/27 01:01:48;;;;;;;6.93;2.90;;;17.30;1.00;;;;;;5049128;28;20029;-72
2023/06/27 01:04:14;;;;;;;8.38;2.80;;;17.30;1.00;;;;;;5048517;28;20027;-71
2023/06/27 01:06:58;;;;;;;7.68;3.15;;;17.30;1.00;;;;;;5049785;28;20021;-71
2023/06/27 01:09:46;;;;;;;7.53;3.00;;;17.30;1.00;;;;;;5049399;28;20078;-72
2023/06/27 01:12:26;;;;;;;7.78;2.47;;;17.20;1.00;;;;;;5050312;28;20112;-71
2023/06/27 01:14:56;;;;;;;6.55;2.50;;;17.20;1.00;;;;;;5049202;28;20428;-71
2023/06/27 01:17:23;;;;;;;6.35;2.80;;;17.30;1.00;;;;;;5048186;28;20427;-71
2023/06/27 01:19:52;;;;;;;4.20;2.28;;;17.30;1.00;;;;;;5048475;28;20516;-71
2023/06/27 01:22:28;;;;;;;8.77;2.53;;;17.30;1.00;;;;;;5050115;28;20366;-72
2023/06/27 01:24:54;;;;;;;9.10;2.50;;;17.20;1.00;;;;;;5049740;28;20063;-72
2023/06/27 01:27:20;;;;;;;8.07;2.88;;;17.20;1.00;;;;;;5049615;28;20048;-73
2023/06/27 01:29:45;;;;;;;7.45;2.53;;;17.20;1.00;;;;;;5047898;28;20125;-72
2023/06/27 01:32:15;;;;;;;5.97;2.60;;;17.20;1.00;;;;;;5050085;28;20028;-72
2023/06/27 01:35:05;;;;;;;6.03;2.63;;;17.10;1.00;;;;;;5049321;28;20025;-72
2023/06/27 01:37:40;;;;;;;5.85;2.75;;;17.20;1.00;;;;;;5049268;28;20040;-72
2023/06/27 01:40:13;;;;;;;9.98;2.40;;;17.10;1.00;;;;;;5049951;28;20040;-72
2023/06/27 01:42:46;;;;;;;7.25;2.58;;;17.20;1.00;;;;;;5049327;28;20128;-72
2023/06/27 01:45:12;;;;;;;6.90;2.38;;;17.10;1.00;;;;;;5049598;28;20049;-72
2023/06/27 01:47:42;;;;;;;6.28;2.40;;;17.10;1.00;;;;;;5049357;28;20063;-72
2023/06/27 01:50:12;;;;;;;5.80;2.22;;;17.10;1.00;;;;;;5049559;28;20032;-72
2023/06/27 01:52:38;;;;;;;6.90;2.53;;;17.20;1.00;;;;;;5049182;28;20033;-72
2023/06/27 01:55:05;;;;;;;4.95;2.35;;;17.10;1.00;;;;;;5049961;28;20069;-71
2023/06/27 01:57:31;;;;;;;7.53;2.92;;;17.10;1.00;;;;;;5049288;28;20059;-71
2023/06/27 01:59:56;;;;;;;5.55;2.60;;;17.20;1.00;;;;;;5049571;28;20100;-72
2023/06/27 02:02:22;;;;;;;7.40;2.92;;;17.20;1.00;;;;;;5049686;28;20040;-73
2023/06/27 02:04:48;;;;;;;7.20;2.90;;;17.20;1.00;;;;;;5049943;28;20029;-72
2023/06/27 02:07:14;;;;;;;5.65;2.70;;;17.20;1.00;;;;;;5050444;28;20031;-71
2023/06/27 02:09:40;;;;;;;8.95;2.85;;;17.20;1.00;;;;;;5049762;28;20124;-71
2023/06/27 02:12:06;;;;;;;8.82;2.75;;;17.10;1.00;;;;;;5050190;28;20044;-72
2023/06/27 02:14:32;;;;;;;7.15;2.40;;;17.10;1.00;;;;;;5049845;28;20086;-72
2023/06/27 02:16:58;;;;;;;9.55;3.13;;;17.10;1.00;;;;;;5049992;28;20403;-71
2023/06/27 02:19:23;;;;;;;7.20;2.58;;;17.10;1.00;;;;;;5048836;28;20021;-72
2023/06/27 02:21:50;;;;;;;7.93;2.83;;;17.10;1.00;;;;;;5047795;28;20036;-71
2023/06/27 02:24:16;;;;;;;9.05;3.30;;;17.00;1.00;;;;;;5049356;28;20033;-71
2023/06/27 02:26:42;;;;;;;6.00;2.85;;;17.00;1.00;;;;;;5048659;28;20033;-71
2023/06/27 02:29:08;;;;;;;9.95;3.10;;;17.10;1.00;;;;;;5049296;28;20143;-71
2023/06/27 02:31:34;;;;;;;12.98;3.00;;;17.10;1.00;;;;;;5048356;28;20053;-72
2023/06/27 02:34:01;;;;;;;6.88;2.65;;;17.10;1.00;;;;;;5049256;28;20029;-71
2023/06/27 02:36:27;;;;;;;6.15;2.85;;;17.00;1.00;;;;;;5048722;28;20424;-71
2023/06/27 02:38:56;;;;;;;8.32;3.10;;;17.10;1.00;;;;;;5051890;28;20120;-71
2023/06/27 02:41:23;;;;;;;11.63;3.08;;;17.10;1.00;;;;;;5052538;28;20123;-72
2023/06/27 02:43:49;;;;;;;9.93;3.08;;;17.10;1.00;;;;;;5052357;28;20029;-71
2023/06/27 02:46:15;;;;;;;9.13;3.72;;;17.10;1.00;;;;;;5052871;28;20025;-72
2023/06/27 02:48:40;;;;;;;9.55;3.08;;;17.10;1.00;;;;;;5052095;28;20397;-71
2023/06/27 02:51:06;;;;;;;6.35;2.70;;;17.10;1.00;;;;;;5052529;28;20028;-72
2023/06/27 02:53:32;;;;;;;8.05;3.22;;;17.10;1.00;;;;;;5052071;28;20041;-72
2023/06/27 02:56:02;;;;;;;9.63;3.08;;;17.00;1.00;;;;;;5052565;28;20170;-72
2023/06/27 02:58:28;;;;;;;8.93;2.78;;;17.00;1.00;;;;;;5051635;28;20482;-72
2023/06/27 03:00:54;;;;;;;6.18;3.00;;;17.00;1.00;;;;;;5052410;28;20324;-72
2023/06/27 03:03:19;;;;;;;9.85;3.10;;;17.00;1.00;;;;;;5052299;28;20094;-72
2023/06/27 03:05:45;;;;;;;7.60;3.05;;;17.00;1.00;;;;;;5050217;28;20067;-72
2023/06/27 03:08:11;;;;;;;7.97;2.88;;;17.00;1.00;;;;;;5052146;28;20025;-72
2023/06/27 03:10:37;;;;;;;10.93;4.03;;;17.00;1.00;;;;;;5051604;28;20032;-71
2023/06/27 03:13:02;;;;;;;12.27;3.20;;;17.00;1.20;;;;;;5051983;28;20040;-71
2023/06/27 03:15:28;;;;;;;7.10;3.15;;;17.00;8.50;;;;;;5034162;28;20052;-73
2023/06/27 03:17:54;;;;;;;6.63;2.75;;;16.90;22.40;;;;;;5051852;28;20133;-72
2023/06/27 03:20:21;;;;;;;8.70;3.15;;;16.90;15.70;;;;;;5052328;28;20111;-72
2023/06/27 03:22:46;;;;;;;9.80;3.40;;;16.90;15.50;;;;;;5051801;28;20085;-71
2023/06/27 03:25:12;;;;;;;7.38;2.92;;;16.90;4.00;;;;;;5052074;28;20127;-72
2023/06/27 03:27:38;;;;;;;12.07;3.58;;;16.90;4.90;;;;;;5049899;28;20029;-72
2023/06/27 03:30:07;;;;;;;9.95;2.95;;;16.90;12.00;;;;;;5052230;28;20148;-72
2023/06/27 03:32:34;;;;;;;9.55;3.28;;;16.90;19.80;;;;;;5051628;28;20041;-72
2023/06/27 03:35:00;;;;;;;11.80;3.33;;;16.90;19.80;;;;;;5050384;28;20028;-72
2023/06/27 03:37:26;;;;;;;10.43;2.97;;;16.90;24.20;;;;;;5051652;28;20080;-71
2023/06/27 03:39:52;;;;;;;11.32;3.55;;;16.90;24.70;;;;;;5051482;28;20091;-72
2023/06/27 03:42:18;;;;;;;8.38;3.40;;;16.80;35.90;;;;;;5051748;28;20111;-72
2023/06/27 03:44:44;;;;;;;7.28;3.35;;;16.90;42.70;;;;;;5051533;28;20021;-72
2023/06/27 03:47:10;;;;;;;9.18;3.20;;;16.80;66.00;;;;;;5051655;28;20063;-72
2023/06/27 03:49:36;;;;;;;11.65;4.05;;;16.70;51.80;;;;;;5051129;28;20048;-72
2023/06/27 03:52:02;;;;;;;6.47;2.95;;;16.70;43.40;;;;;;5051750;28;20021;-72
2023/06/27 03:54:27;;;;;;;5.63;3.22;;;16.70;64.10;;;;;;5051466;28;20029;-72
2023/06/27 03:56:53;;;;;;;8.38;3.90;;;16.70;64.90;;;;;;5051082;28;20138;-72
2023/06/27 03:59:19;;;;;;;7.10;3.30;;;16.60;96.70;;;;;;5051642;28;20040;-72
2023/06/27 04:01:44;;;;;;;10.27;3.85;;;16.50;98.10;;;;;;5049637;28;20052;-72
2023/06/27 04:04:10;;;;;;;5.20;2.92;;;16.50;98.60;;;;;;5051234;28;20112;-72
2023/06/27 04:06:36;;;;;;;10.93;3.97;;;16.50;99.90;;;;;;5050510;28;20025;-73
2023/06/27 04:09:05;;;;;;;11.85;4.63;;;16.40;99.90;;;;;;5051199;28;20040;-72
2023/06/27 04:11:31;;;;;;;13.00;3.60;;;16.40;99.90;;;;;;5051015;28;20028;-72
2023/06/27 04:13:59;;;;;;;15.57;5.05;;;16.40;99.90;;;;;;5051213;28;20025;-72
2023/06/27 04:16:25;;;;;;;7.10;3.40;;;16.30;99.90;;;;;;5051893;28;20036;-71
2023/06/27 04:18:51;;;;;;;10.00;4.20;;;16.20;99.90;;;;;;5050525;28;20036;-73
2023/06/27 04:21:18;;;;;;;12.75;4.35;;;16.30;99.90;;;;;;5051202;28;20041;-73
2023/06/27 04:23:44;;;;;;;8.57;3.78;;;16.10;99.90;;;;;;5050582;28;20029;-73
2023/06/27 04:26:15;;;;;;;10.00;4.63;;;16.10;99.90;;;;;;5051147;28;20108;-72
2023/06/27 04:28:43;;;;;;;11.27;4.07;;;16.00;99.90;;;;;;5050233;28;20057;-72
2023/06/27 04:31:09;;;;;;;9.68;4.20;;;16.00;99.90;;;;;;5051118;28;20079;-72
2023/06/27 04:33:39;;;;;;;12.18;4.25;;;16.10;99.90;;;;;;5050533;28;20139;-73
2023/06/27 04:36:09;;;;;;;11.65;3.50;;;16.10;99.90;;;;;;5051159;28;20029;-72
2023/06/27 04:38:39;;;;;;;7.60;3.63;;;16.10;99.90;;;;;;5050255;28;20205;-73
2023/06/27 04:41:09;;;;;;;7.35;3.38;;;16.00;99.90;;;;;;5051087;28;20037;-73
2023/06/27 04:43:36;;;;;;;11.93;4.03;;;16.00;99.90;;;;;;5050131;28;20180;-73
2023/06/27 04:46:02;;;;;;;7.28;3.35;;;16.10;99.90;;;;;;5050810;28;20025;-72
2023/06/27 04:48:28;;;;;;;6.68;3.45;;;16.10;99.90;;;;;;5049247;28;20112;-72
2023/06/27 04:50:55;;;;;;;6.25;3.05;;;16.10;99.90;;;;;;5050312;28;20206;-72
2023/06/27 04:53:24;;;;;;;7.57;3.38;;;16.10;99.90;;;;;;5050533;28;20025;-73
2023/06/27 04:55:51;;;;;;;10.02;4.15;;;16.20;99.90;;;;;;5050284;28;20515;-72
2023/06/27 04:58:18;;;;;;;8.77;3.10;;;16.20;99.90;;;;;;5049037;28;20032;-72
2023/06/27 05:00:44;;;;;;;7.75;3.05;;;16.20;99.90;;;;;;5049813;28;20040;-72
2023/06/27 05:03:11;;;;;;;8.52;3.35;;;16.20;99.90;;;;;;5050647;28;20021;-73
2023/06/27 05:05:36;;;;;;;8.57;3.95;;;16.20;99.90;;;;;;5049906;28;20025;-73
2023/06/27 05:08:06;;;;;;;7.85;3.38;;;16.30;99.90;;;;;;5050722;28;20028;-73
2023/06/27 05:10:32;;;;;;;7.05;3.38;;;16.20;99.90;;;;;;5050258;28;20029;-73
2023/06/27 05:12:58;;;;;;;10.23;3.35;;;16.30;99.90;;;;;;5050070;28;20025;-73
2023/06/27 05:15:24;;;;;;;5.07;2.70;;;16.30;99.90;;;;;;5050879;28;20025;-73
2023/06/27 05:18:15;;;;;;;5.72;2.90;;;16.30;99.90;;;;;;5048317;28;20056;-72
2023/06/27 05:20:44;;;;;;;8.85;3.03;;;16.40;99.90;;;;;;5049988;28;20062;-72
2023/06/27 05:23:10;;;;;;;6.40;3.40;;;16.40;99.90;;;;;;5050221;28;20033;-72
2023/06/27 05:25:36;;;;;;;6.47;2.97;;;16.40;99.90;;;;;;5049720;28;20092;-73
2023/06/27 05:28:02;;;;;;;4.32;3.03;;;16.50;99.90;;;;;;5049849;28;20363;-71
2023/06/27 05:30:28;;;;;;;6.63;3.55;;;16.50;99.90;;;;;;5050288;28;20083;-72
2023/06/27 05:32:55;;;;;;;7.53;3.53;;;16.50;99.90;;;;;;5049259;28;20056;-72
2023/06/27 05:35:21;;;;;;;6.15;2.83;;;16.50;99.90;;;;;;5049942;28;20017;-72
2023/06/27 05:37:47;;;;;;;5.43;2.88;;;16.50;99.90;;;;;;5049671;28;20021;-73
2023/06/27 05:40:13;;;;;;;4.85;3.08;;;16.60;99.90;;;;;;5048559;28;20052;-72
2023/06/27 05:42:39;;;;;;;7.85;3.25;;;16.60;99.90;;;;;;5049440;28;20120;-73
2023/06/27 05:45:05;;;;;;;8.60;4.10;;;16.60;99.90;;;;;;5048296;28;20459;-72
2023/06/27 05:47:31;;;;;;;8.25;3.60;;;16.60;99.90;;;;;;5049930;28;20086;-72
2023/06/27 05:49:57;;;;;;;11.27;3.97;;;16.70;99.90;;;;;;5049324;28;20029;-72
2023/06/27 05:52:23;;;;;;;5.90;3.13;;;16.80;99.90;;;;;;5050175;28;20048;-72
2023/06/27 05:54:52;;;;;;;5.35;3.13;;;16.70;99.90;;;;;;5047725;28;20025;-73
2023/06/27 05:57:18;;;;;;;9.10;3.85;;;16.80;99.90;;;;;;5049947;28;20077;-72
2023/06/27 05:59:44;;;;;;;6.65;3.78;;;16.70;99.90;;;;;;5049062;28;20448;-73
2023/06/27 06:02:10;;;;;;;8.20;3.75;;;16.70;99.90;;;;;;5049845;28;20462;-73
2023/06/27 06:04:36;;;;;;;6.72;3.35;;;16.80;99.90;;;;;;5049389;28;20029;-72
2023/06/27 06:07:03;;;;;;;5.97;3.67;;;16.80;99.90;;;;;;5049199;28;20040;-72
2023/06/27 06:09:30;;;;;;;8.40;3.47;;;16.80;99.90;;;;;;5049671;28;20112;-72
2023/06/27 06:11:56;;;;;;;7.03;3.50;;;16.90;99.90;;;;;;5049494;28;20048;-72
2023/06/27 06:14:22;;;;;;;5.57;3.55;;;17.00;99.90;;;;;;5053565;28;20025;-72
2023/06/27 06:16:48;;;;;;;6.53;3.80;;;17.00;99.90;;;;;;5053306;28;20199;-73
2023/06/27 06:19:14;;;;;;;6.13;3.90;;;17.00;99.90;;;;;;5053121;28;20147;-72
2023/06/27 06:21:40;;;;;;;6.20;3.88;;;17.10;99.90;;;;;;5053064;28;20466;-73
2023/06/27 06:24:08;;;;;;;9.82;4.38;;;17.20;99.90;;;;;;5052929;28;20029;-72
2023/06/27 06:26:35;;;;;;;10.63;4.40;;;17.30;99.90;;;;;;5053338;28;20047;-72
2023/06/27 06:29:02;;;;;;;9.30;4.13;;;17.30;99.90;;;;;;5052192;28;20060;-72
2023/06/27 06:31:27;;;;;;;7.35;4.32;;;17.40;99.90;;;;;;5053174;28;20035;-72
2023/06/27 06:33:54;;;;;;;8.40;3.97;;;17.40;99.90;;;;;;5052176;28;20029;-73
2023/06/27 06:36:20;;;;;;;10.48;4.72;;;17.50;99.90;;;;;;5051609;28;20029;-72
2023/06/27 06:38:46;;;;;;;8.80;4.68;;;17.50;99.90;;;;;;5052556;28;20048;-73
2023/06/27 06:41:11;;;;;;;8.98;5.05;;;17.60;99.90;;;;;;5053513;28;20039;-73
2023/06/27 06:43:37;;;;;;;14.85;5.57;;;17.60;99.90;;;;;;5053226;28;20103;-73
2023/06/27 06:46:04;;;;;;;12.90;5.25;;;17.60;99.90;;;;;;5052538;28;20037;-72
2023/06/27 06:48:30;;;;;;;8.70;4.43;;;17.70;99.90;;;;;;5051745;28;20108;-72
2023/06/27 06:50:56;;;;;;;11.52;5.63;;;17.70;99.90;;;;;;5052847;28;20075;-72
2023/06/27 06:53:23;;;;;;;9.23;5.22;;;17.70;99.90;;;;;;5053400;28;20097;-72
2023/06/27 06:55:49;;;;;;;15.45;5.72;;;17.70;99.90;;;;;;5052423;28;20075;-72
2023/06/27 06:58:15;;;;;;;11.65;6.03;;;17.70;99.90;;;;;;5052778;28;20382;-72
2023/06/27 07:00:41;;;;;;;12.57;5.97;;;17.60;99.90;;;;;;5053077;28;20066;-73
2023/06/27 07:03:08;;;;;;;9.43;5.63;;;17.60;99.90;;;;;;5052956;28;20025;-72
2023/06/27 07:05:35;;;;;;;9.85;6.03;;;17.60;99.90;;;;;;5052518;28;20033;-73
2023/06/27 07:08:03;;;;;;;14.93;7.13;;;17.70;99.90;;;;;;5052007;28;20110;-73
2023/06/27 07:10:28;;;;;;;18.83;7.60;;;17.70;99.90;;;;;;5050861;28;20029;-73
2023/06/27 07:12:54;;;;;;;13.23;7.57;;;17.70;99.90;;;;;;5052633;28;20035;-72
2023/06/27 07:15:23;;;;;;;14.45;7.85;;;17.70;99.90;;;;;;5052812;28;20080;-73
2023/06/27 07:17:53;;;;;;;13.30;7.50;;;17.80;99.90;;;;;;5051922;28;20043;-72
2023/06/27 07:20:20;;;;;;;15.02;8.50;;;17.80;99.90;;;;;;5051939;28;20033;-72
2023/06/27 07:22:46;;;;;;;14.07;8.27;;;17.80;99.90;;;;;;5051586;28;20032;-73
2023/06/27 07:25:12;;;;;;;17.10;9.02;;;17.90;99.90;;;;;;5052138;28;20040;-73
2023/06/27 07:27:38;;;;;;;16.33;7.88;;;17.90;99.90;;;;;;5052338;28;20033;-72
2023/06/27 07:30:04;;;;;;;15.68;8.43;;;18.00;99.90;;;;;;5051663;28;20096;-72
2023/06/27 07:32:30;;;;;;;16.60;8.68;;;18.00;99.90;;;;;;5052210;28;20025;-72
2023/06/27 07:34:56;;;;;;;14.38;8.07;;;18.00;99.90;;;;;;5051309;28;20347;-73
2023/06/27 07:37:22;;;;;;;16.77;9.73;;;18.10;99.90;;;;;;5052101;28;20025;-73
2023/06/27 07:39:47;;;;;;;18.10;9.65;;;18.10;99.90;;;;;;5051465;28;20037;-73
2023/06/27 07:42:13;;;;;;;20.23;9.93;;;18.10;99.90;;;;;;5052076;28;20151;-72
2023/06/27 07:44:39;;;;;;;19.20;8.93;;;18.20;99.90;;;;;;5050669;28;20025;-71
2023/06/27 07:47:04;;;;;;;22.05;11.23;;;18.30;99.90;;;;;;5051300;28;20055;-71
2023/06/27 07:49:31;;;;;;;22.02;10.63;;;18.30;99.90;;;;;;5052052;28;20036;-72
2023/06/27 07:51:57;;;;;;;20.23;11.27;;;18.40;99.90;;;;;;5051478;28;20021;-72
2023/06/27 07:54:26;;;;;;;18.00;10.95;;;18.50;99.90;;;;;;5051809;28;20410;-72
2023/06/27 07:56:54;;;;;;;17.40;10.55;;;18.60;99.90;;;;;;5050632;28;20029;-72
2023/06/27 07:59:20;;;;;;;21.30;10.45;;;18.70;99.90;;;;;;5051554;28;20029;-72
2023/06/27 08:01:46;;;;;;;22.45;11.00;;;18.80;99.90;;;;;;5050506;28;20043;-73
2023/06/27 08:04:12;;;;;;;17.63;11.48;;;18.90;99.90;;;;;;5051315;28;20041;-72
2023/06/27 08:06:38;;;;;;;25.58;11.45;;;18.90;99.90;;;;;;5051422;28;20025;-72
2023/06/27 08:09:03;;;;;;;18.30;11.05;;;18.90;99.90;;;;;;5051154;28;20363;-72
2023/06/27 08:11:29;;;;;;;20.27;10.30;;;19.00;99.90;;;;;;5051425;28;20029;-72
2023/06/27 08:13:55;;;;;;;19.98;11.63;;;19.00;99.90;;;;;;5050900;28;20095;-72
2023/06/27 08:16:21;;;;;;;24.35;12.48;;;19.10;99.90;;;;;;5051834;28;20021;-72
2023/06/27 08:18:47;;;;;;;21.02;11.55;;;19.10;99.90;;;;;;5049331;28;20080;-72
2023/06/27 08:21:13;;;;;;;20.05;10.68;;;19.20;99.90;;;;;;5051155;28;20029;-72
2023/06/27 08:23:39;;;;;;;20.25;11.75;;;19.30;99.90;;;;;;5051034;28;20033;-72
2023/06/27 08:26:05;;;;;;;18.38;10.15;;;19.30;99.90;;;;;;5050477;28;20669;-72
2023/06/27 08:28:31;;;;;;;19.08;11.45;;;19.40;99.90;;;;;;5050888;28;20049;-72
2023/06/27 08:30:57;;;;;;;19.05;11.00;;;19.40;99.90;;;;;;5050546;28;20071;-72
2023/06/27 08:33:23;;;;;;;20.42;11.80;;;19.60;99.90;;;;;;5050929;28;20021;-72
2023/06/27 08:35:49;;;;;;;21.55;12.75;;;19.80;99.90;;;;;;5049557;28;20074;-73
2023/06/27 08:38:15;;;;;;;20.98;12.40;;;19.80;99.90;;;;;;5051100;28;20426;-72
2023/06/27 08:40:42;;;;;;;22.40;14.00;;;19.90;99.90;;;;;;5050810;28;20170;-72
2023/06/27 08:43:10;;;;;;;24.17;13.95;;;19.90;99.90;;;;;;5050496;28;20021;-72
2023/06/27 08:45:37;;;;;;;27.27;14.52;;;19.90;99.90;;;;;;5050786;28;20039;-72
2023/06/27 08:48:06;;;;;;;27.83;15.52;;;19.80;99.90;;;;;;5050137;28;20033;-72
2023/06/27 08:50:37;;;;;;;31.02;17.45;;;19.80;99.90;;;;;;5049495;28;20036;-72
2023/06/27 08:53:07;;;;;;;26.20;16.55;;;19.60;99.90;;;;;;5050320;28;20021;-72
2023/06/27 08:55:38;;;;;;;28.50;16.55;;;19.60;99.90;;;;;;5050275;28;20112;-72
2023/06/27 08:58:08;;;;;;;32.15;19.33;;;19.60;99.90;;;;;;5050110;28;20043;-72
2023/06/27 09:00:34;;;;;;;29.88;18.55;;;19.60;99.90;;;;;;5050613;28;20392;-73
2023/06/27 09:03:02;;;;;;;31.25;18.80;;;19.50;99.90;;;;;;5050321;28;20025;-72
2023/06/27 09:05:31;;;;;;;26.50;16.23;;;19.50;99.90;;;;;;5050640;28;20052;-72
2023/06/27 09:07:57;;;;;;;25.48;15.68;;;19.50;99.90;;;;;;5050176;28;20126;-73
2023/06/27 09:10:24;;;;;;;25.02;14.73;;;19.50;99.90;;;;;;5051070;28;20089;-72
2023/06/27 09:12:52;;;;;;;26.27;15.13;;;19.50;99.90;;;;;;5050240;28;20120;-72
2023/06/27 09:15:18;;;;;;;21.73;13.98;;;19.50;99.90;;;;;;5051030;28;20108;-72
2023/06/27 09:17:43;;;;;;;20.13;12.15;;;19.50;99.90;;;;;;5049701;28;20120;-72
2023/06/27 09:20:10;;;;;;;19.13;12.18;;;19.60;99.90;;;;;;5049760;28;20059;-72
2023/06/27 09:22:37;;;;;;;18.90;10.70;;;19.70;99.90;;;;;;5050130;28;20382;-72
2023/06/27 09:25:14;;;;;;;19.08;11.50;;;19.70;99.90;;;;;;5049725;28;20024;-72
2023/06/27 09:27:40;;;;;;;20.52;11.30;;;19.70;99.90;;;;;;5049989;28;20028;-73
2023/06/27 09:30:07;;;;;;;24.35;12.10;;;19.70;99.90;;;;;;5049642;28;20047;-72
2023/06/27 09:32:34;;;;;;;18.65;11.48;;;19.70;99.90;;;;;;5049390;28;20032;-73
2023/06/27 09:35:03;;;;;;;19.70;11.50;;;19.70;99.90;;;;;;5049679;28;20443;-73
2023/06/27 09:37:33;;;;;;;22.77;12.25;;;19.80;99.90;;;;;;5049750;28;20025;-71
2023/06/27 09:40:25;;;;;;;19.67;12.15;;;19.80;99.90;;;;;;5049618;28;20064;-72
2023/06/27 09:42:55;;;;;;;23.48;13.38;;;19.80;99.90;;;;;;5049891;28;20427;-72
2023/06/27 09:45:23;;;;;;;20.73;13.13;;;19.90;99.90;;;;;;5049966;28;20060;-72
2023/06/27 09:47:52;;;;;;;22.77;13.98;;;20.00;99.90;;;;;;5053693;28;20111;-72
2023/06/27 09:50:28;;;;;;;22.63;14.65;;;20.10;99.90;;;;;;5053921;28;20032;-71
2023/06/27 09:52:56;;;;;;;23.50;14.63;;;20.10;99.90;;;;;;5052800;28;20025;-72
2023/06/27 09:55:22;;;;;;;23.25;15.13;;;20.20;99.90;;;;;;5052800;28;20435;-71
2023/06/27 09:57:48;;;;;;;22.92;15.50;;;20.20;99.90;;;;;;5053338;28;20036;-71
2023/06/27 10:00:18;;;;;;;25.77;15.90;;;20.30;99.90;;;;;;5052789;28;20431;-72
2023/06/27 10:02:48;;;;;;;28.00;15.68;;;20.40;99.90;;;;;;5053477;28;20036;-72
2023/06/27 10:05:15;;;;;;;26.08;15.73;;;20.40;99.90;;;;;;5052712;28;20044;-73
2023/06/27 10:07:43;;;;;;;24.27;15.52;;;20.50;99.90;;;;;;5053076;28;20036;-73
2023/06/27 10:10:09;;;;;;;29.70;16.48;;;20.50;99.90;;;;;;5051377;28;20177;-73
2023/06/27 10:12:35;;;;;;;22.00;14.75;;;20.50;99.90;;;;;;5053460;28;20070;-73
2023/06/27 10:15:02;;;;;;;26.10;16.05;;;20.50;99.90;;;;;;5053692;28;20428;-73
2023/06/27 10:17:29;;;;;;;25.20;14.57;;;20.50;99.90;;;;;;5052782;28;20033;-73
2023/06/27 10:19:55;;;;;;;24.88;16.10;;;20.50;99.90;;;;;;5052782;28;20033;-74
2023/06/27 10:22:26;;;;;;;30.83;17.65;;;20.50;99.90;;;;;;5052431;28;20525;-73
2023/06/27 10:24:56;;;;;;;26.67;16.15;;;20.50;99.90;;;;;;5052659;28;20029;-73
2023/06/27 10:27:24;;;;;;;27.88;16.83;;;20.50;99.90;;;;;;5052845;28;20120;-73
2023/06/27 10:29:50;;;;;;;30.33;17.10;;;20.50;99.90;;;;;;5052127;28;20056;-74
2023/06/27 10:32:18;;;;;;;26.40;16.58;;;20.50;99.90;;;;;;5052473;28;20382;-74
2023/06/27 10:34:45;;;;;;;29.98;16.92;;;20.40;99.90;;;;;;5053114;28;20056;-74
2023/06/27 10:37:25;;;;;;;26.13;15.65;;;20.50;99.90;;;;;;5050314;28;20111;-74
2023/06/27 10:40:00;;;;;;;26.63;15.77;;;20.40;99.90;;;;;;5052967;28;20095;-75
2023/06/27 10:42:31;;;;;;;27.08;16.20;;;20.50;99.90;;;;;;5052403;28;20378;-74
2023/06/27 10:44:59;;;;;;;26.42;16.88;;;20.40;99.90;;;;;;5052257;28;20359;-74
2023/06/27 10:47:27;;;;;;;25.02;15.82;;;20.40;99.90;;;;;;5052715;28;20159;-74
2023/06/27 10:50:00;;;;;;;26.15;15.90;;;20.40;99.90;;;;;;5051997;28;20174;-75
2023/06/27 10:52:26;;;;;;;25.55;16.23;;;20.40;99.90;;;;;;5052458;28;20040;-74
2023/06/27 10:55:13;;;;;;;22.65;15.27;;;20.40;99.90;;;;;;5052101;28;20354;-75
2023/06/27 10:57:39;;;;;;;30.05;16.80;;;20.40;99.90;;;;;;5051104;28;20124;-74
2023/06/27 11:00:21;;;;;;;27.48;17.95;;;20.50;99.90;;;;;;5051887;28;20107;-74
2023/06/27 11:02:49;;;;;;;25.88;16.70;;;20.40;99.90;;;;;;5052443;28;20033;-74
2023/06/27 11:05:18;;;;;;;28.25;16.77;;;20.50;99.90;;;;;;5050513;28;20036;-74
2023/06/27 11:07:57;;;;;;;27.52;16.80;;;20.50;99.90;;;;;;5051922;28;20173;-74
2023/06/27 11:10:29;;;;;;;29.58;16.58;;;20.60;99.90;;;;;;5052876;28;20017;-75
2023/06/27 11:13:14;;;;;;;25.17;16.00;;;20.70;99.90;;;;;;5052309;28;20025;-75
2023/06/27 11:15:45;;;;;;;27.02;16.08;;;20.80;99.90;;;;;;5052549;28;20022;-74
2023/06/27 11:18:15;;;;;;;33.97;16.25;;;20.80;99.90;;;;;;5051851;28;20463;-74
2023/06/27 11:20:41;;;;;;;25.20;16.08;;;20.80;99.90;;;;;;5052087;28;20062;-74
2023/06/27 11:23:07;;;;;;;23.08;15.32;;;20.70;99.90;;;;;;5052008;28;20021;-75
2023/06/27 11:25:37;;;;;;;22.75;15.98;;;20.60;99.90;;;;;;5053128;28;20508;-74
2023/06/27 11:28:03;;;;;;;27.17;15.82;;;20.50;99.90;;;;;;5051336;28;20308;-74
2023/06/27 11:30:30;;;;;;;27.58;16.63;;;20.50;99.90;;;;;;5052656;28;20120;-74
2023/06/27 11:32:56;;;;;;;27.48;17.55;;;20.40;99.90;;;;;;5051867;28;20108;-75
2023/06/27 11:35:23;;;;;;;26.60;17.58;;;20.40;99.90;;;;;;5051610;28;20406;-74
2023/06/27 11:37:56;;;;;;;28.25;17.50;;;20.30;99.90;;;;;;5051244;28;20875;-74
2023/06/27 11:40:24;;;;;;;27.17;17.40;;;20.30;99.90;;;;;;5051536;28;20032;-75
2023/06/27 11:42:58;;;;;;;26.05;17.08;;;20.30;99.90;;;;;;5051332;28;20036;-74
2023/06/27 11:45:23;;;;;;;23.00;15.27;;;20.40;99.90;;;;;;5050566;28;20032;-75
2023/06/27 11:47:50;;;;;;;24.25;15.95;;;20.40;99.90;;;;;;5051092;28;20096;-74
2023/06/27 11:50:16;;;;;;;27.23;15.98;;;20.40;99.90;;;;;;5050658;28;20393;-74
2023/06/27 11:52:41;;;;;;;24.20;15.57;;;20.40;99.90;;;;;;5051156;28;20478;-74
2023/06/27 11:55:08;;;;;;;26.92;15.98;;;20.50;99.90;;;;;;5051248;28;20061;-75
2023/06/27 11:58:00;;;;;;;24.45;15.60;;;20.50;99.90;;;;;;5051925;28;20021;-73
2023/06/27 12:00:31;;;;;;;29.60;16.45;;;20.50;99.90;;;;;;5049327;28;20045;-73
2023/06/27 12:03:03;;;;;;;26.05;16.55;;;20.40;99.90;;;;;;5051199;28;20025;-74
2023/06/27 12:05:29;;;;;;;25.55;15.32;;;20.40;99.90;;;;;;5051782;28;20033;-73
2023/06/27 12:08:04;;;;;;;23.00;15.68;;;20.40;99.90;;;;;;5050681;28;20106;-73
2023/06/27 12:10:31;;;;;;;26.48;16.10;;;20.50;99.90;;;;;;5051256;28;20328;-73
2023/06/27 12:12:58;;;;;;;25.33;14.93;;;20.50;99.90;;;;;;5051989;28;20083;-74
2023/06/27 12:15:24;;;;;;;22.45;15.50;;;20.50;99.90;;;;;;5052500;28;20047;-73
2023/06/27 12:17:57;;;;;;;22.10;14.68;;;20.40;99.90;;;;;;5050834;28;20470;-73
2023/06/27 12:20:23;;;;;;;23.30;14.43;;;20.40;99.90;;;;;;5051840;28;20107;-73
2023/06/27 12:22:49;;;;;;;23.35;14.00;;;20.40;99.90;;;;;;5052075;28;20025;-73
2023/06/27 12:25:15;;;;;;;27.20;13.73;;;20.40;99.90;;;;;;5051620;28;20282;-73
2023/06/27 12:27:41;;;;;;;24.33;13.13;;;20.40;99.90;;;;;;5051980;28;20044;-73
2023/06/27 12:30:09;;;;;;;18.25;12.35;;;20.40;99.90;;;;;;5050022;28;20021;-73
2023/06/27 12:32:35;;;;;;;18.90;12.02;;;20.60;99.90;;;;;;5052103;28;20377;-73
2023/06/27 12:35:01;;;;;;;18.92;12.07;;;20.80;99.90;;;;;;5051187;28;20366;-73
2023/06/27 12:37:28;;;;;;;17.88;11.70;;;21.10;99.90;;;;;;5051749;28;20025;-73
2023/06/27 12:39:54;;;;;;;15.82;11.43;;;21.20;99.90;;;;;;5050428;28;20052;-73
2023/06/27 12:42:20;;;;;;;14.70;10.45;;;21.30;99.90;;;;;;5050999;28;20145;-74